sensor_id;sensor_type;location;lat;lon;timestamp;temperature;humidity
2030;DHT22;1020;48.854;8.830;2022-11-18T00:01:36;7.10;99.90
2030;DHT22;1020;48.854;8.830;2022-11-18T00:04:03;7.10;99.90
2030;DHT22;1020;48.854;8.830;2022-11-18T00:06:30;7.10;99.90
2030;DHT22;1020;48.854;8.830;2022-11-18T00:08:57;7.10;99.90
2030;DHT22;1020;48.854;8.830;2022-11-18T00:11:25;7.10;99.90
2030;DHT22;1020;48.854;8.830;2022-11-18T00:14:10;7.10;99.90
2030;DHT22;1020;48.854;8.830;2022-11-18T00:16:51;7.00;99.90
2030;DHT22;1020;48.854;8.830;2022-11-18T00:19:19;7.00;99.90
2030;DHT22;1020;48.854;8.830;2022-11-18T00:21:47;7.00;99.90
2030;DHT22;1020;48.854;8.830;2022-11-18T00:24:13;7.00;99.90
2030;DHT22;1020;48.854;8.830;2022-11-18T00:26:40;7.00;99.90
2030;DHT22;1020;48.854;8.830;2022-11-18T00:29:08;7.10;99.90
2030;DHT22;1020;48.854;8.830;2022-11-18T00:31:35;7.10;99.90
2030;DHT22;1020;48.854;8.830;2022-11-18T00:34:04;7.10;99.90
2030;DHT22;1020;48.854;8.830;2022-11-18T00:36:31;7.00;99.90
2030;DHT22;1020;48.854;8.830;2022-11-18T00:38:58;7.00;99.90
2030;DHT22;1020;48.854;8.830;2022-11-18T00:41:24;7.00;99.90
2030;DHT22;1020;48.854;8.830;2022-11-18T00:44:11;7.00;99.90
2030;DHT22;1020;48.854;8.830;2022-11-18T00:46:37;7.00;99.90
2030;DHT22;1020;48.854;8.830;2022-11-18T00:49:06;7.00;99.90
2030;DHT22;1020;48.854;8.830;2022-11-18T00:51:33;7.00;99.90
2030;DHT22;1020;48.854;8.830;2022-11-18T00:53:59;7.00;99.90
2030;DHT22;1020;48.854;8.830;2022-11-18T00:56:26;7.00;99.90
2030;DHT22;1020;48.854;8.830;2022-11-18T00:58:53;7.00;99.90
2030;DHT22;1020;48.854;8.830;2022-11-18T01:01:20;7.00;99.90
2030;DHT22;1020;48.854;8.830;2022-11-18T01:03:47;6.90;99.90
2030;DHT22;1020;48.854;8.830;2022-11-18T01:06:15;7.00;99.90
2030;DHT22;1020;48.854;8.830;2022-11-18T01:08:41;7.00;99.90
2030;DHT22;1020;48.854;8.830;2022-11-18T01:11:09;7.00;99.90
2030;DHT22;1020;48.854;8.830;2022-11-18T01:13:53;7.00;99.90
2030;DHT22;1020;48.854;8.830;2022-11-18T01:16:21;7.00;99.90
2030;DHT22;1020;48.854;8.830;2022-11-18T01:18:48;7.00;99.90
2030;DHT22;1020;48.854;8.830;2022-11-18T01:21:17;7.00;99.90
2030;DHT22;1020;48.854;8.830;2022-11-18T01:23:44;7.00;99.90
2030;DHT22;1020;48.854;8.830;2022-11-18T01:26:14;7.00;99.90
2030;DHT22;1020;48.854;8.830;2022-11-18T01:28:42;7.00;99.90
2030;DHT22;1020;48.854;8.830;2022-11-18T01:31:10;7.00;99.90
2030;DHT22;1020;48.854;8.830;2022-11-18T01:33:37;7.00;99.90
2030;DHT22;1020;48.854;8.830;2022-11-18T01:36:13;7.00;99.90
2030;DHT22;1020;48.854;8.830;2022-11-18T01:38:42;7.00;99.90
2030;DHT22;1020;48.854;8.830;2022-11-18T01:41:08;7.00;99.90
2030;DHT22;1020;48.854;8.830;2022-11-18T01:43:51;7.00;99.90
2030;DHT22;1020;48.854;8.830;2022-11-18T01:46:18;7.00;99.90
2030;DHT22;1020;48.854;8.830;2022-11-18T01:48:49;7.00;99.90
2030;DHT22;1020;48.854;8.830;2022-11-18T01:51:20;7.00;99.90
2030;DHT22;1020;48.854;8.830;2022-11-18T01:53:51;7.00;99.90
2030;DHT22;1020;48.854;8.830;2022-11-18T01:56:22;7.00;99.90
2030;DHT22;1020;48.854;8.830;2022-11-18T01:58:53;7.00;99.90
2030;DHT22;1020;48.854;8.830;2022-11-18T02:01:20;7.00;99.90
2030;DHT22;1020;48.854;8.830;2022-11-18T02:03:47;7.00;99.90
2030;DHT22;1020;48.854;8.830;2022-11-18T02:06:15;7.00;99.90
2030;DHT22;1020;48.854;8.830;2022-11-18T02:08:42;7.00;99.90
2030;DHT22;1020;48.854;8.830;2022-11-18T02:11:13;7.00;99.90
2030;DHT22;1020;48.854;8.830;2022-11-18T02:13:54;7.00;99.90
2030;DHT22;1020;48.854;8.830;2022-11-18T02:16:25;7.00;99.90
2030;DHT22;1020;48.854;8.830;2022-11-18T02:18:59;7.10;99.90
2030;DHT22;1020;48.854;8.830;2022-11-18T02:21:33;7.10;99.90
2030;DHT22;1020;48.854;8.830;2022-11-18T02:24:27;7.10;99.90
2030;DHT22;1020;48.854;8.830;2022-11-18T02:27:38;7.10;99.90
2030;DHT22;1020;48.854;8.830;2022-11-18T02:30:15;8.40;99.90
2030;DHT22;1020;48.854;8.830;2022-11-18T02:32:47;7.00;99.90
2030;DHT22;1020;48.854;8.830;2022-11-18T02:35:17;7.00;99.90
2030;DHT22;1020;48.854;8.830;2022-11-18T02:37:50;7.00;99.90
2030;DHT22;1020;48.854;8.830;2022-11-18T02:40:22;7.00;99.90
2030;DHT22;1020;48.854;8.830;2022-11-18T02:42:55;7.00;99.90
2030;DHT22;1020;48.854;8.830;2022-11-18T02:45:26;7.00;99.90
2030;DHT22;1020;48.854;8.830;2022-11-18T02:47:54;7.10;99.90
2030;DHT22;1020;48.854;8.830;2022-11-18T02:50:25;7.00;99.90
2030;DHT22;1020;48.854;8.830;2022-11-18T02:52:57;7.00;99.90
2030;DHT22;1020;48.854;8.830;2022-11-18T02:55:27;7.00;99.90
2030;DHT22;1020;48.854;8.830;2022-11-18T02:57:56;7.00;99.90
2030;DHT22;1020;48.854;8.830;2022-11-18T03:00:25;7.00;99.90
2030;DHT22;1020;48.854;8.830;2022-11-18T03:02:51;7.00;99.90
2030;DHT22;1020;48.854;8.830;2022-11-18T03:05:22;7.10;99.90
2030;DHT22;1020;48.854;8.830;2022-11-18T03:07:55;7.10;99.90
2030;DHT22;1020;48.854;8.830;2022-11-18T03:10:24;7.10;99.90
2030;DHT22;1020;48.854;8.830;2022-11-18T03:13:03;7.10;99.90
2030;DHT22;1020;48.854;8.830;2022-11-18T03:15:39;7.20;99.90
2030;DHT22;1020;48.854;8.830;2022-11-18T03:18:15;7.20;99.90
2030;DHT22;1020;48.854;8.830;2022-11-18T03:20:47;7.20;99.90
2030;DHT22;1020;48.854;8.830;2022-11-18T03:23:21;7.20;99.90
2030;DHT22;1020;48.854;8.830;2022-11-18T03:25:54;7.20;99.90
2030;DHT22;1020;48.854;8.830;2022-11-18T03:28:24;7.20;99.90
2030;DHT22;1020;48.854;8.830;2022-11-18T03:30:59;7.20;99.90
2030;DHT22;1020;48.854;8.830;2022-11-18T03:33:31;7.20;99.90
2030;DHT22;1020;48.854;8.830;2022-11-18T03:36:00;7.20;99.90
2030;DHT22;1020;48.854;8.830;2022-11-18T03:38:33;7.10;99.90
2030;DHT22;1020;48.854;8.830;2022-11-18T03:41:04;7.00;99.90
2030;DHT22;1020;48.854;8.830;2022-11-18T03:43:35;6.90;99.90
2030;DHT22;1020;48.854;8.830;2022-11-18T03:46:06;6.80;99.90
2030;DHT22;1020;48.854;8.830;2022-11-18T03:48:37;6.80;99.90
2030;DHT22;1020;48.854;8.830;2022-11-18T03:51:09;6.70;99.90
2030;DHT22;1020;48.854;8.830;2022-11-18T03:53:40;6.70;99.90
2030;DHT22;1020;48.854;8.830;2022-11-18T03:56:11;6.70;99.90
2030;DHT22;1020;48.854;8.830;2022-11-18T03:58:42;6.60;99.90
2030;DHT22;1020;48.854;8.830;2022-11-18T04:01:16;6.60;99.90
2030;DHT22;1020;48.854;8.830;2022-11-18T04:03:45;6.50;99.90
2030;DHT22;1020;48.854;8.830;2022-11-18T04:06:18;6.60;99.90
2030;DHT22;1020;48.854;8.830;2022-11-18T04:08:51;6.50;99.90
2030;DHT22;1020;48.854;8.830;2022-11-18T04:11:25;6.50;99.90
2030;DHT22;1020;48.854;8.830;2022-11-18T04:14:12;6.50;99.90
2030;DHT22;1020;48.854;8.830;2022-11-18T04:16:42;6.50;99.90
2030;DHT22;1020;48.854;8.830;2022-11-18T04:19:09;6.40;99.90
2030;DHT22;1020;48.854;8.830;2022-11-18T04:21:36;6.40;99.90
2030;DHT22;1020;48.854;8.830;2022-11-18T04:24:03;6.40;99.90
2030;DHT22;1020;48.854;8.830;2022-11-18T04:26:30;6.50;99.90
2030;DHT22;1020;48.854;8.830;2022-11-18T04:28:57;6.50;99.90
2030;DHT22;1020;48.854;8.830;2022-11-18T04:31:24;6.50;99.90
2030;DHT22;1020;48.854;8.830;2022-11-18T04:33:52;6.50;99.90
2030;DHT22;1020;48.854;8.830;2022-11-18T04:36:19;6.50;99.90
2030;DHT22;1020;48.854;8.830;2022-11-18T04:38:46;6.40;99.90
2030;DHT22;1020;48.854;8.830;2022-11-18T04:41:13;6.50;99.90
2030;DHT22;1020;48.854;8.830;2022-11-18T04:43:40;6.40;99.90
2030;DHT22;1020;48.854;8.830;2022-11-18T04:46:07;6.40;99.90
2030;DHT22;1020;48.854;8.830;2022-11-18T04:48:34;6.40;99.90
2030;DHT22;1020;48.854;8.830;2022-11-18T04:51:03;6.40;99.90
2030;DHT22;1020;48.854;8.830;2022-11-18T04:53:30;6.40;99.90
2030;DHT22;1020;48.854;8.830;2022-11-18T04:56:03;6.40;99.90
2030;DHT22;1020;48.854;8.830;2022-11-18T04:58:31;6.40;99.90
2030;DHT22;1020;48.854;8.830;2022-11-18T05:00:57;6.40;99.90
2030;DHT22;1020;48.854;8.830;2022-11-18T05:03:24;6.40;99.90
2030;DHT22;1020;48.854;8.830;2022-11-18T05:05:51;6.40;99.90
2030;DHT22;1020;48.854;8.830;2022-11-18T05:08:19;6.50;99.90
2030;DHT22;1020;48.854;8.830;2022-11-18T05:10:46;6.40;99.90
2030;DHT22;1020;48.854;8.830;2022-11-18T05:13:12;6.40;99.90
2030;DHT22;1020;48.854;8.830;2022-11-18T05:15:38;6.50;99.90
2030;DHT22;1020;48.854;8.830;2022-11-18T05:18:05;6.50;99.90
2030;DHT22;1020;48.854;8.830;2022-11-18T05:20:32;6.40;99.90
2030;DHT22;1020;48.854;8.830;2022-11-18T05:22:58;6.40;99.90
2030;DHT22;1020;48.854;8.830;2022-11-18T05:25:26;6.40;99.90
2030;DHT22;1020;48.854;8.830;2022-11-18T05:27:53;6.40;99.90
2030;DHT22;1020;48.854;8.830;2022-11-18T05:30:20;6.40;99.90
2030;DHT22;1020;48.854;8.830;2022-11-18T05:32:47;6.40;99.90
2030;DHT22;1020;48.854;8.830;2022-11-18T05:35:14;6.30;99.90
2030;DHT22;1020;48.854;8.830;2022-11-18T05:37:40;6.30;99.90
2030;DHT22;1020;48.854;8.830;2022-11-18T05:40:08;6.40;99.90
2030;DHT22;1020;48.854;8.830;2022-11-18T05:42:37;6.30;99.90
2030;DHT22;1020;48.854;8.830;2022-11-18T05:45:21;6.30;99.90
2030;DHT22;1020;48.854;8.830;2022-11-18T05:47:48;6.30;99.90
2030;DHT22;1020;48.854;8.830;2022-11-18T05:50:29;6.20;99.90
2030;DHT22;1020;48.854;8.830;2022-11-18T05:52:56;6.20;99.90
2030;DHT22;1020;48.854;8.830;2022-11-18T05:55:24;6.10;99.90
2030;DHT22;1020;48.854;8.830;2022-11-18T05:57:54;6.10;99.90
2030;DHT22;1020;48.854;8.830;2022-11-18T06:00:21;6.20;99.90
2030;DHT22;1020;48.854;8.830;2022-11-18T06:02:50;6.20;99.90
2030;DHT22;1020;48.854;8.830;2022-11-18T06:05:19;6.20;99.90
2030;DHT22;1020;48.854;8.830;2022-11-18T06:07:48;6.20;99.90
2030;DHT22;1020;48.854;8.830;2022-11-18T06:10:17;6.20;99.90
2030;DHT22;1020;48.854;8.830;2022-11-18T06:12:46;6.10;99.90
2030;DHT22;1020;48.854;8.830;2022-11-18T06:15:19;6.10;99.90
2030;DHT22;1020;48.854;8.830;2022-11-18T06:17:49;6.20;99.90
2030;DHT22;1020;48.854;8.830;2022-11-18T06:20:18;6.20;99.90
2030;DHT22;1020;48.854;8.830;2022-11-18T06:22:46;6.20;99.90
2030;DHT22;1020;48.854;8.830;2022-11-18T06:25:14;6.20;99.90
2030;DHT22;1020;48.854;8.830;2022-11-18T06:27:41;6.20;99.90
2030;DHT22;1020;48.854;8.830;2022-11-18T06:30:09;6.20;99.90
2030;DHT22;1020;48.854;8.830;2022-11-18T06:32:37;6.20;99.90
2030;DHT22;1020;48.854;8.830;2022-11-18T06:35:05;6.20;99.90
2030;DHT22;1020;48.854;8.830;2022-11-18T06:37:32;6.20;99.90
2030;DHT22;1020;48.854;8.830;2022-11-18T06:39:59;6.20;99.90
2030;DHT22;1020;48.854;8.830;2022-11-18T06:42:26;6.20;99.90
2030;DHT22;1020;48.854;8.830;2022-11-18T06:45:11;6.20;99.90
2030;DHT22;1020;48.854;8.830;2022-11-18T06:47:39;6.20;99.90
2030;DHT22;1020;48.854;8.830;2022-11-18T06:50:07;6.10;99.90
2030;DHT22;1020;48.854;8.830;2022-11-18T06:52:34;6.20;99.90
2030;DHT22;1020;48.854;8.830;2022-11-18T06:55:00;6.20;99.90
2030;DHT22;1020;48.854;8.830;2022-11-18T06:57:30;6.20;99.90
2030;DHT22;1020;48.854;8.830;2022-11-18T06:59:57;6.20;99.90
2030;DHT22;1020;48.854;8.830;2022-11-18T07:02:24;6.20;99.90
2030;DHT22;1020;48.854;8.830;2022-11-18T07:04:52;6.20;99.90
2030;DHT22;1020;48.854;8.830;2022-11-18T07:07:19;6.20;99.90
2030;DHT22;1020;48.854;8.830;2022-11-18T07:09:45;6.30;99.90
2030;DHT22;1020;48.854;8.830;2022-11-18T07:12:12;6.20;99.90
2030;DHT22;1020;48.854;8.830;2022-11-18T07:14:39;6.30;99.90
2030;DHT22;1020;48.854;8.830;2022-11-18T07:17:06;6.20;99.90
2030;DHT22;1020;48.854;8.830;2022-11-18T07:19:32;6.30;99.90
2030;DHT22;1020;48.854;8.830;2022-11-18T07:22:00;6.30;99.90
2030;DHT22;1020;48.854;8.830;2022-11-18T07:24:27;6.30;99.90
2030;DHT22;1020;48.854;8.830;2022-11-18T07:26:54;6.30;99.90
2030;DHT22;1020;48.854;8.830;2022-11-18T07:29:21;6.30;99.90
2030;DHT22;1020;48.854;8.830;2022-11-18T07:31:47;6.30;99.90
2030;DHT22;1020;48.854;8.830;2022-11-18T07:34:14;6.30;99.90
2030;DHT22;1020;48.854;8.830;2022-11-18T07:36:41;6.30;99.90
2030;DHT22;1020;48.854;8.830;2022-11-18T07:39:09;6.40;99.90
2030;DHT22;1020;48.854;8.830;2022-11-18T07:41:38;6.40;99.90
2030;DHT22;1020;48.854;8.830;2022-11-18T07:44:05;6.30;99.90
2030;DHT22;1020;48.854;8.830;2022-11-18T07:46:34;6.40;99.90
2030;DHT22;1020;48.854;8.830;2022-11-18T07:49:02;6.40;99.90
2030;DHT22;1020;48.854;8.830;2022-11-18T07:51:32;6.40;99.90
2030;DHT22;1020;48.854;8.830;2022-11-18T07:54:00;6.40;99.90
2030;DHT22;1020;48.854;8.830;2022-11-18T07:56:28;6.40;99.90
2030;DHT22;1020;48.854;8.830;2022-11-18T07:58:55;6.40;99.90
2030;DHT22;1020;48.854;8.830;2022-11-18T08:01:23;6.40;99.90
2030;DHT22;1020;48.854;8.830;2022-11-18T08:03:52;6.50;99.90
2030;DHT22;1020;48.854;8.830;2022-11-18T08:06:19;6.50;99.90
2030;DHT22;1020;48.854;8.830;2022-11-18T08:08:46;6.50;99.90
2030;DHT22;1020;48.854;8.830;2022-11-18T08:11:14;6.50;99.90
2030;DHT22;1020;48.854;8.830;2022-11-18T08:13:42;6.50;99.90
2030;DHT22;1020;48.854;8.830;2022-11-18T08:16:12;6.50;99.90
2030;DHT22;1020;48.854;8.830;2022-11-18T08:18:40;6.60;99.90
2030;DHT22;1020;48.854;8.830;2022-11-18T08:21:06;6.60;99.90
2030;DHT22;1020;48.854;8.830;2022-11-18T08:23:33;6.60;99.90
2030;DHT22;1020;48.854;8.830;2022-11-18T08:26:01;6.70;99.90
2030;DHT22;1020;48.854;8.830;2022-11-18T08:28:29;6.70;99.90
2030;DHT22;1020;48.854;8.830;2022-11-18T08:30:57;6.70;99.90
2030;DHT22;1020;48.854;8.830;2022-11-18T08:33:24;6.70;99.90
2030;DHT22;1020;48.854;8.830;2022-11-18T08:35:51;6.70;99.90
2030;DHT22;1020;48.854;8.830;2022-11-18T08:38:17;6.80;99.90
2030;DHT22;1020;48.854;8.830;2022-11-18T08:40:45;6.80;99.90
2030;DHT22;1020;48.854;8.830;2022-11-18T08:43:13;8.60;99.90
2030;DHT22;1020;48.854;8.830;2022-11-18T08:45:40;7.50;99.90
2030;DHT22;1020;48.854;8.830;2022-11-18T08:48:08;6.90;99.90
2030;DHT22;1020;48.854;8.830;2022-11-18T08:50:35;6.80;99.90
2030;DHT22;1020;48.854;8.830;2022-11-18T08:53:02;6.90;99.90
2030;DHT22;1020;48.854;8.830;2022-11-18T08:55:29;6.90;99.90
2030;DHT22;1020;48.854;8.830;2022-11-18T08:57:55;6.90;99.90
2030;DHT22;1020;48.854;8.830;2022-11-18T09:00:22;7.00;99.90
2030;DHT22;1020;48.854;8.830;2022-11-18T09:02:49;7.00;99.90
2030;DHT22;1020;48.854;8.830;2022-11-18T09:05:17;7.10;99.90
2030;DHT22;1020;48.854;8.830;2022-11-18T09:07:44;7.10;99.90
2030;DHT22;1020;48.854;8.830;2022-11-18T09:10:11;7.10;99.90
2030;DHT22;1020;48.854;8.830;2022-11-18T09:12:37;8.30;99.90
2030;DHT22;1020;48.854;8.830;2022-11-18T09:15:05;8.30;99.90
2030;DHT22;1020;48.854;8.830;2022-11-18T09:17:33;7.20;99.90
2030;DHT22;1020;48.854;8.830;2022-11-18T09:20:00;7.20;99.90
2030;DHT22;1020;48.854;8.830;2022-11-18T09:22:28;7.20;99.90
2030;DHT22;1020;48.854;8.830;2022-11-18T09:24:55;7.20;99.90
2030;DHT22;1020;48.854;8.830;2022-11-18T09:27:21;7.30;99.90
2030;DHT22;1020;48.854;8.830;2022-11-18T09:29:48;7.30;99.90
2030;DHT22;1020;48.854;8.830;2022-11-18T09:32:15;7.40;99.90
2030;DHT22;1020;48.854;8.830;2022-11-18T09:34:42;7.40;99.90
2030;DHT22;1020;48.854;8.830;2022-11-18T09:37:08;7.40;99.90
2030;DHT22;1020;48.854;8.830;2022-11-18T09:39:36;7.40;99.90
2030;DHT22;1020;48.854;8.830;2022-11-18T09:45:04;7.40;99.90
2030;DHT22;1020;48.854;8.830;2022-11-18T09:47:34;7.50;99.90
2030;DHT22;1020;48.854;8.830;2022-11-18T09:50:04;7.50;99.90
2030;DHT22;1020;48.854;8.830;2022-11-18T09:52:35;7.50;99.90
2030;DHT22;1020;48.854;8.830;2022-11-18T09:55:10;7.50;99.90
2030;DHT22;1020;48.854;8.830;2022-11-18T09:57:40;7.50;99.90
2030;DHT22;1020;48.854;8.830;2022-11-18T10:00:14;7.50;99.90
2030;DHT22;1020;48.854;8.830;2022-11-18T10:02:49;7.50;99.90
2030;DHT22;1020;48.854;8.830;2022-11-18T10:05:20;7.50;99.90
2030;DHT22;1020;48.854;8.830;2022-11-18T10:08:02;7.50;99.90
2030;DHT22;1020;48.854;8.830;2022-11-18T10:10:40;7.60;99.90
2030;DHT22;1020;48.854;8.830;2022-11-18T10:13:17;7.70;99.90
2030;DHT22;1020;48.854;8.830;2022-11-18T10:15:56;7.70;99.90
2030;DHT22;1020;48.854;8.830;2022-11-18T10:18:29;7.80;99.90
2030;DHT22;1020;48.854;8.830;2022-11-18T10:21:01;7.80;99.90
2030;DHT22;1020;48.854;8.830;2022-11-18T10:23:32;7.70;99.90
2030;DHT22;1020;48.854;8.830;2022-11-18T10:26:02;5.50;99.90
2030;DHT22;1020;48.854;8.830;2022-11-18T10:28:29;7.70;99.90
2030;DHT22;1020;48.854;8.830;2022-11-18T10:31:04;7.60;99.90
2030;DHT22;1020;48.854;8.830;2022-11-18T10:33:31;7.60;99.90
2030;DHT22;1020;48.854;8.830;2022-11-18T10:36:24;7.70;99.90
2030;DHT22;1020;48.854;8.830;2022-11-18T10:39:05;7.70;99.90
2030;DHT22;1020;48.854;8.830;2022-11-18T10:41:41;7.80;99.90
2030;DHT22;1020;48.854;8.830;2022-11-18T10:44:31;7.80;99.90
2030;DHT22;1020;48.854;8.830;2022-11-18T10:47:26;7.80;99.90
2030;DHT22;1020;48.854;8.830;2022-11-18T10:49:54;7.80;99.90
2030;DHT22;1020;48.854;8.830;2022-11-18T10:52:21;7.80;99.90
2030;DHT22;1020;48.854;8.830;2022-11-18T10:55:07;7.80;99.90
2030;DHT22;1020;48.854;8.830;2022-11-18T10:57:38;7.90;99.90
2030;DHT22;1020;48.854;8.830;2022-11-18T11:00:41;7.90;99.90
2030;DHT22;1020;48.854;8.830;2022-11-18T11:03:33;7.80;99.90
2030;DHT22;1020;48.854;8.830;2022-11-18T11:06:28;7.90;99.90
2030;DHT22;1020;48.854;8.830;2022-11-18T11:08:58;8.40;99.90
2030;DHT22;1020;48.854;8.830;2022-11-18T11:11:27;7.90;99.90
2030;DHT22;1020;48.854;8.830;2022-11-18T11:14:18;8.00;99.90
2030;DHT22;1020;48.854;8.830;2022-11-18T11:16:51;8.00;99.90
2030;DHT22;1020;48.854;8.830;2022-11-18T11:19:22;8.10;99.90
2030;DHT22;1020;48.854;8.830;2022-11-18T11:21:51;8.10;99.90
2030;DHT22;1020;48.854;8.830;2022-11-18T11:24:19;8.10;99.90
2030;DHT22;1020;48.854;8.830;2022-11-18T11:26:53;7.80;99.90
2030;DHT22;1020;48.854;8.830;2022-11-18T11:29:33;8.10;99.90
2030;DHT22;1020;48.854;8.830;2022-11-18T11:32:10;8.10;99.90
2030;DHT22;1020;48.854;8.830;2022-11-18T11:34:45;8.10;99.90
2030;DHT22;1020;48.854;8.830;2022-11-18T11:37:24;8.00;99.90
2030;DHT22;1020;48.854;8.830;2022-11-18T11:40:05;8.10;99.90
2030;DHT22;1020;48.854;8.830;2022-11-18T11:42:42;8.00;99.90
2030;DHT22;1020;48.854;8.830;2022-11-18T11:45:23;8.00;99.90
2030;DHT22;1020;48.854;8.830;2022-11-18T11:48:04;8.00;99.90
2030;DHT22;1020;48.854;8.830;2022-11-18T11:50:39;7.90;99.90
2030;DHT22;1020;48.854;8.830;2022-11-18T11:53:37;7.90;99.90
2030;DHT22;1020;48.854;8.830;2022-11-18T11:56:14;7.90;99.90
2030;DHT22;1020;48.854;8.830;2022-11-18T11:59:07;7.90;99.90
2030;DHT22;1020;48.854;8.830;2022-11-18T12:01:45;7.80;99.90
2030;DHT22;1020;48.854;8.830;2022-11-18T12:04:27;7.90;99.90
2030;DHT22;1020;48.854;8.830;2022-11-18T12:06:58;7.90;99.90
2030;DHT22;1020;48.854;8.830;2022-11-18T12:09:36;7.90;99.90
2030;DHT22;1020;48.854;8.830;2022-11-18T12:12:08;8.00;99.90
2030;DHT22;1020;48.854;8.830;2022-11-18T12:14:55;7.90;99.90
2030;DHT22;1020;48.854;8.830;2022-11-18T12:17:28;7.80;99.90
2030;DHT22;1020;48.854;8.830;2022-11-18T12:19:56;7.80;99.90
2030;DHT22;1020;48.854;8.830;2022-11-18T12:22:23;7.80;99.90
2030;DHT22;1020;48.854;8.830;2022-11-18T12:25:42;7.10;99.90
2030;DHT22;1020;48.854;8.830;2022-11-18T12:28:09;7.80;99.90
2030;DHT22;1020;48.854;8.830;2022-11-18T12:30:36;7.90;99.90
2030;DHT22;1020;48.854;8.830;2022-11-18T12:33:14;6.60;99.90
2030;DHT22;1020;48.854;8.830;2022-11-18T12:35:46;8.10;99.90
2030;DHT22;1020;48.854;8.830;2022-11-18T12:38:28;7.00;99.90
2030;DHT22;1020;48.854;8.830;2022-11-18T12:40:55;7.90;99.90
2030;DHT22;1020;48.854;8.830;2022-11-18T12:46:48;8.20;99.90
2030;DHT22;1020;48.854;8.830;2022-11-18T12:52:47;9.00;99.90
2030;DHT22;1020;48.854;8.830;2022-11-18T12:55:17;9.30;99.90
2030;DHT22;1020;48.854;8.830;2022-11-18T12:57:44;9.30;99.90
2030;DHT22;1020;48.854;8.830;2022-11-18T13:00:28;9.20;99.90
2030;DHT22;1020;48.854;8.830;2022-11-18T13:02:58;9.00;99.90
2030;DHT22;1020;48.854;8.830;2022-11-18T13:05:27;8.80;99.90
2030;DHT22;1020;48.854;8.830;2022-11-18T13:07:58;8.70;99.90
2030;DHT22;1020;48.854;8.830;2022-11-18T13:10:46;8.70;99.90
2030;DHT22;1020;48.854;8.830;2022-11-18T13:13:25;9.10;99.90
2030;DHT22;1020;48.854;8.830;2022-11-18T13:15:54;9.70;99.90
2030;DHT22;1020;48.854;8.830;2022-11-18T13:18:48;9.90;99.90
2030;DHT22;1020;48.854;8.830;2022-11-18T13:21:23;10.10;99.90
2030;DHT22;1020;48.854;8.830;2022-11-18T13:24:12;9.90;99.90
2030;DHT22;1020;48.854;8.830;2022-11-18T13:26:41;9.70;99.90
2030;DHT22;1020;48.854;8.830;2022-11-18T13:29:16;9.30;99.90
2030;DHT22;1020;48.854;8.830;2022-11-18T13:31:52;8.10;99.90
2030;DHT22;1020;48.854;8.830;2022-11-18T13:34:23;9.00;99.90
2030;DHT22;1020;48.854;8.830;2022-11-18T13:36:52;9.20;99.90
2030;DHT22;1020;48.854;8.830;2022-11-18T13:39:23;9.40;99.90
2030;DHT22;1020;48.854;8.830;2022-11-18T13:41:58;9.30;99.90
2030;DHT22;1020;48.854;8.830;2022-11-18T13:44:27;9.30;99.90
2030;DHT22;1020;48.854;8.830;2022-11-18T13:46:59;9.20;99.90
2030;DHT22;1020;48.854;8.830;2022-11-18T13:49:42;9.20;99.90
2030;DHT22;1020;48.854;8.830;2022-11-18T13:52:12;9.10;99.90
2030;DHT22;1020;48.854;8.830;2022-11-18T13:54:42;9.10;99.90
2030;DHT22;1020;48.854;8.830;2022-11-18T13:57:16;9.10;99.90
2030;DHT22;1020;48.854;8.830;2022-11-18T13:59:45;9.40;99.90
2030;DHT22;1020;48.854;8.830;2022-11-18T14:02:13;9.70;99.90
2030;DHT22;1020;48.854;8.830;2022-11-18T14:04:48;9.60;99.90
2030;DHT22;1020;48.854;8.830;2022-11-18T14:07:29;9.60;99.90
2030;DHT22;1020;48.854;8.830;2022-11-18T14:09:59;9.70;99.90
2030;DHT22;1020;48.854;8.830;2022-11-18T14:12:28;9.90;99.90
2030;DHT22;1020;48.854;8.830;2022-11-18T14:15:13;9.90;99.90
2030;DHT22;1020;48.854;8.830;2022-11-18T14:17:49;9.70;99.90
2030;DHT22;1020;48.854;8.830;2022-11-18T14:20:17;9.60;99.90
2030;DHT22;1020;48.854;8.830;2022-11-18T14:22:44;9.60;99.90
2030;DHT22;1020;48.854;8.830;2022-11-18T14:25:19;9.60;99.90
2030;DHT22;1020;48.854;8.830;2022-11-18T14:27:48;9.80;99.90
2030;DHT22;1020;48.854;8.830;2022-11-18T14:30:27;10.00;99.90
2030;DHT22;1020;48.854;8.830;2022-11-18T14:33:12;10.00;99.90
2030;DHT22;1020;48.854;8.830;2022-11-18T14:35:39;9.90;99.90
2030;DHT22;1020;48.854;8.830;2022-11-18T14:38:14;9.60;99.90
2030;DHT22;1020;48.854;8.830;2022-11-18T14:40:43;9.40;99.90
2030;DHT22;1020;48.854;8.830;2022-11-18T14:43:11;9.20;99.90
2030;DHT22;1020;48.854;8.830;2022-11-18T14:45:38;9.10;99.90
2030;DHT22;1020;48.854;8.830;2022-11-18T14:48:08;9.00;99.90
2030;DHT22;1020;48.854;8.830;2022-11-18T14:50:36;9.10;99.90
2030;DHT22;1020;48.854;8.830;2022-11-18T14:53:03;9.00;99.90
2030;DHT22;1020;48.854;8.830;2022-11-18T14:55:30;9.00;99.90
2030;DHT22;1020;48.854;8.830;2022-11-18T14:57:58;9.10;99.90
2030;DHT22;1020;48.854;8.830;2022-11-18T15:00:25;9.00;99.90
2030;DHT22;1020;48.854;8.830;2022-11-18T15:02:52;8.80;99.90
2030;DHT22;1020;48.854;8.830;2022-11-18T15:05:18;8.80;99.90
2030;DHT22;1020;48.854;8.830;2022-11-18T15:07:45;8.70;99.90
2030;DHT22;1020;48.854;8.830;2022-11-18T15:10:14;8.70;99.90
2030;DHT22;1020;48.854;8.830;2022-11-18T15:12:41;8.70;99.90
2030;DHT22;1020;48.854;8.830;2022-11-18T15:15:10;8.70;99.90
2030;DHT22;1020;48.854;8.830;2022-11-18T15:17:38;8.80;99.90
2030;DHT22;1020;48.854;8.830;2022-11-18T15:20:06;8.80;99.90
2030;DHT22;1020;48.854;8.830;2022-11-18T15:22:33;8.70;99.90
2030;DHT22;1020;48.854;8.830;2022-11-18T15:24:59;8.60;99.90
2030;DHT22;1020;48.854;8.830;2022-11-18T15:27:26;8.50;99.90
2030;DHT22;1020;48.854;8.830;2022-11-18T15:29:53;8.40;99.90
2030;DHT22;1020;48.854;8.830;2022-11-18T15:32:21;8.30;99.90
2030;DHT22;1020;48.854;8.830;2022-11-18T15:34:48;8.20;99.90
2030;DHT22;1020;48.854;8.830;2022-11-18T15:37:15;8.10;99.90
2030;DHT22;1020;48.854;8.830;2022-11-18T15:39:42;8.00;99.90
2030;DHT22;1020;48.854;8.830;2022-11-18T15:42:09;7.90;99.90
2030;DHT22;1020;48.854;8.830;2022-11-18T15:44:36;7.80;99.90
2030;DHT22;1020;48.854;8.830;2022-11-18T15:47:03;7.70;99.90
2030;DHT22;1020;48.854;8.830;2022-11-18T15:49:31;7.70;99.90
2030;DHT22;1020;48.854;8.830;2022-11-18T15:51:58;7.60;99.90
2030;DHT22;1020;48.854;8.830;2022-11-18T15:54:25;7.60;99.90
2030;DHT22;1020;48.854;8.830;2022-11-18T15:56:51;7.60;99.90
2030;DHT22;1020;48.854;8.830;2022-11-18T15:59:18;7.50;99.90
2030;DHT22;1020;48.854;8.830;2022-11-18T16:01:46;7.40;99.90
2030;DHT22;1020;48.854;8.830;2022-11-18T16:04:15;7.40;99.90
2030;DHT22;1020;48.854;8.830;2022-11-18T16:06:44;5.20;99.90
2030;DHT22;1020;48.854;8.830;2022-11-18T16:09:12;7.30;99.90
2030;DHT22;1020;48.854;8.830;2022-11-18T16:11:39;7.20;99.90
2030;DHT22;1020;48.854;8.830;2022-11-18T16:14:24;7.20;99.90
2030;DHT22;1020;48.854;8.830;2022-11-18T16:16:53;7.20;99.90
2030;DHT22;1020;48.854;8.830;2022-11-18T16:19:23;7.20;99.90
2030;DHT22;1020;48.854;8.830;2022-11-18T16:21:53;7.20;99.90
2030;DHT22;1020;48.854;8.830;2022-11-18T16:24:22;7.10;99.90
2030;DHT22;1020;48.854;8.830;2022-11-18T16:26:50;7.10;99.90
2030;DHT22;1020;48.854;8.830;2022-11-18T16:29:17;7.10;99.90
2030;DHT22;1020;48.854;8.830;2022-11-18T16:31:45;7.00;99.90
2030;DHT22;1020;48.854;8.830;2022-11-18T16:34:17;7.00;99.90
2030;DHT22;1020;48.854;8.830;2022-11-18T16:36:46;7.00;99.90
2030;DHT22;1020;48.854;8.830;2022-11-18T16:39:15;6.90;99.90
2030;DHT22;1020;48.854;8.830;2022-11-18T16:41:44;6.90;99.90
2030;DHT22;1020;48.854;8.830;2022-11-18T16:44:12;6.90;99.90
2030;DHT22;1020;48.854;8.830;2022-11-18T16:46:41;6.90;99.90
2030;DHT22;1020;48.854;8.830;2022-11-18T16:49:11;6.90;99.90
2030;DHT22;1020;48.854;8.830;2022-11-18T16:51:39;6.80;99.90